Time;durP1;ratioP1;P1;durP2;ratioP2;P2;SDS_P1;SDS_P2;PMS_P1;PMS_P2;Temp;Humidity;BMP_temperature;BMP_pressure;BME280_temperature;BME280_humidity;BME280_pressure;Samples;Min_cycle;Max_cycle;Signal;HPM_P1;HPM_P2
2023/11/11 00:00:23;;;;;;;3.33;1.08;;;;;;;;;;1038964;28;20032;-72
2023/11/11 00:00:54;;;;;;;0.73;0.73;;;;;;;;;;1040133;28;20053;-72
2023/11/11 00:01:24;;;;;;;0.75;0.63;;;;;;;;;;1040118;28;20060;-72
2023/11/11 00:01:55;;;;;;;1.42;1.33;;;;;;;;;;1040182;28;20020;-72
2023/11/11 00:02:25;;;;;;;0.55;0.55;;;;;;;;;;1039962;28;20509;-72
2023/11/11 00:02:56;;;;;;;0.98;0.95;;;;;;;;;;1040000;28;20504;-72
2023/11/11 00:03:26;;;;;;;2.22;2.13;;;;;;;;;;1040121;28;20116;-72
2023/11/11 00:03:57;;;;;;;2.25;1.40;;;;;;;;;;1040151;28;20040;-72
2023/11/11 00:04:27;;;;;;;0.20;0.20;;;;;;;;;;1039970;28;20501;-72
2023/11/11 00:04:58;;;;;;;1.75;1.63;;;;;;;;;;1040055;28;20021;-72
2023/11/11 00:05:28;;;;;;;4.85;2.00;;;;;;;;;;1039994;28;20148;-72
2023/11/11 00:05:59;;;;;;;1.95;0.65;;;;;;;;;;1040024;28;20022;-72
2023/11/11 00:06:29;;;;;;;1.77;1.67;;;;;;;;;;1039002;28;20092;-72
2023/11/11 00:07:00;;;;;;;1.63;1.08;;;;;;;;;;1039271;28;20027;-72
2023/11/11 00:07:30;;;;;;;1.48;1.27;;;;;;;;;;1038924;28;20053;-72
2023/11/11 00:08:01;;;;;;;0.30;0.30;;;;;;;;;;1039360;28;20017;-72
2023/11/11 00:08:34;;;;;;;4.93;1.23;;;;;;;;;;1039946;28;20013;-72
2023/11/11 00:09:05;;;;;;;1.60;1.50;;;;;;;;;;1039926;28;20021;-72
2023/11/11 00:09:37;;;;;;;13.57;1.10;;;;;;;;;;1039475;28;20401;-72
2023/11/11 00:10:09;;;;;;;1.27;0.82;;;;;;;;;;1038646;28;20088;-72
2023/11/11 00:10:39;;;;;;;1.77;1.65;;;;;;;;;;1039441;28;20389;-72
2023/11/11 00:11:10;;;;;;;5.47;1.40;;;;;;;;;;1039898;28;20024;-72
2023/11/11 00:11:40;;;;;;;0.43;0.43;;;;;;;;;;1040030;28;20025;-72
2023/11/11 00:12:11;;;;;;;3.15;2.85;;;;;;;;;;1039867;28;20160;-72
2023/11/11 00:12:42;;;;;;;0.77;0.77;;;;;;;;;;1039907;28;20029;-72
2023/11/11 00:13:12;;;;;;;0.50;0.50;;;;;;;;;;1040224;28;20053;-72
2023/11/11 00:13:44;;;;;;;0.35;0.35;;;;;;;;;;1039567;28;20469;-72
2023/11/11 00:14:14;;;;;;;2.05;1.95;;;;;;;;;;1039540;28;20032;-72
2023/11/11 00:14:45;;;;;;;2.05;1.33;;;;;;;;;;1039399;28;20100;-72
2023/11/11 00:15:15;;;;;;;0.20;0.20;;;;;;;;;;1039739;28;20021;-72
2023/11/11 00:15:46;;;;;;;2.38;1.58;;;;;;;;;;1039286;28;20060;-72
2023/11/11 00:16:18;;;;;;;3.03;2.78;;;;;;;;;;1039497;28;20025;-72
2023/11/11 00:16:48;;;;;;;0.30;0.30;;;;;;;;;;1039664;28;20029;-72
2023/11/11 00:17:19;;;;;;;1.02;1.02;;;;;;;;;;1039901;28;20013;-72
2023/11/11 00:17:49;;;;;;;0.40;0.40;;;;;;;;;;1039772;28;20034;-72
2023/11/11 00:18:20;;;;;;;7.13;1.65;;;;;;;;;;1039983;28;20036;-72
2023/11/11 00:18:51;;;;;;;0.20;0.20;;;;;;;;;;1040135;28;20029;-72
2023/11/11 00:19:23;;;;;;;1.13;1.00;;;;;;;;;;1038943;28;20064;-72
2023/11/11 00:19:53;;;;;;;5.25;1.13;;;;;;;;;;1039837;28;20052;-72
2023/11/11 00:20:24;;;;;;;0.22;0.22;;;;;;;;;;1039467;28;20098;-72
2023/11/11 00:20:56;;;;;;;1.40;0.77;;;;;;;;;;1040015;28;20112;-72
2023/11/11 00:21:27;;;;;;;0.45;0.45;;;;;;;;;;1039987;28;20068;-72
2023/11/11 00:21:57;;;;;;;4.88;1.77;;;;;;;;;;1040074;28;20025;-72
2023/11/11 00:22:28;;;;;;;2.20;1.33;;;;;;;;;;1039533;28;20116;-72
2023/11/11 00:23:01;;;;;;;0.30;0.30;;;;;;;;;;1039972;28;20697;-72
2023/11/11 00:23:32;;;;;;;1.38;1.25;;;;;;;;;;1040018;28;20029;-72
2023/11/11 00:24:03;;;;;;;0.50;0.50;;;;;;;;;;1040103;28;20013;-72
2023/11/11 00:24:34;;;;;;;1.38;1.27;;;;;;;;;;1039435;28;20032;-72
2023/11/11 00:25:04;;;;;;;1.15;1.15;;;;;;;;;;1039657;28;20651;-72
2023/11/11 00:25:35;;;;;;;0.20;0.20;;;;;;;;;;1039646;28;20096;-72
2023/11/11 00:26:06;;;;;;;1.63;1.17;;;;;;;;;;1039815;28;20040;-72
2023/11/11 00:26:37;;;;;;;0.20;0.20;;;;;;;;;;1038600;28;20069;-72
2023/11/11 00:27:07;;;;;;;1.30;1.20;;;;;;;;;;1039959;28;20053;-72
2023/11/11 00:27:41;;;;;;;0.82;0.82;;;;;;;;;;1039823;28;20029;-72
2023/11/11 00:28:11;;;;;;;1.00;0.95;;;;;;;;;;1040067;28;20033;-72
2023/11/11 00:28:43;;;;;;;1.25;0.43;;;;;;;;;;1039941;28;20045;-72
2023/11/11 00:29:13;;;;;;;0.55;0.55;;;;;;;;;;1039874;28;20064;-72
2023/11/11 00:29:44;;;;;;;1.83;1.67;;;;;;;;;;1039155;28;20026;-72
2023/11/11 00:30:15;;;;;;;2.28;1.95;;;;;;;;;;1036843;28;20033;-72
2023/11/11 00:30:46;;;;;;;0.30;0.30;;;;;;;;;;1037486;28;20025;-72
2023/11/11 00:31:16;;;;;;;6.55;2.33;;;;;;;;;;1037807;28;20017;-72
2023/11/11 00:31:47;;;;;;;0.55;0.55;;;;;;;;;;1039503;28;20009;-72
2023/11/11 00:32:18;;;;;;;0.63;0.63;;;;;;;;;;1039579;28;20029;-72
2023/11/11 00:32:50;;;;;;;0.80;0.80;;;;;;;;;;1039667;28;20025;-72
2023/11/11 00:33:21;;;;;;;2.08;0.57;;;;;;;;;;1038901;28;20498;-72
2023/11/11 00:33:54;;;;;;;1.05;0.88;;;;;;;;;;1039050;28;20029;-72
2023/11/11 00:34:25;;;;;;;3.03;2.40;;;;;;;;;;1039739;28;20075;-72
2023/11/11 00:34:55;;;;;;;1.45;0.77;;;;;;;;;;1039675;28;20091;-72
2023/11/11 00:35:26;;;;;;;0.88;0.88;;;;;;;;;;1040011;28;20041;-73
2023/11/11 00:35:56;;;;;;;0.70;0.70;;;;;;;;;;1039423;28;20120;-73
2023/11/11 00:36:27;;;;;;;8.68;2.30;;;;;;;;;;1039293;28;20061;-73
2023/11/11 00:36:58;;;;;;;2.55;1.58;;;;;;;;;;1039866;28;20072;-73
2023/11/11 00:37:29;;;;;;;0.73;0.73;;;;;;;;;;1039584;28;20028;-73
2023/11/11 00:38:00;;;;;;;3.97;2.38;;;;;;;;;;1039949;28;20025;-73
2023/11/11 00:38:32;;;;;;;3.50;2.88;;;;;;;;;;1039376;28;20089;-73
2023/11/11 00:39:06;;;;;;;2.58;2.38;;;;;;;;;;1040027;28;20520;-73
2023/11/11 00:39:37;;;;;;;2.63;2.40;;;;;;;;;;1039776;28;20033;-73
2023/11/11 00:40:07;;;;;;;2.72;2.22;;;;;;;;;;1039756;28;20500;-73
2023/11/11 00:40:40;;;;;;;4.40;2.22;;;;;;;;;;1039603;28;20021;-72
2023/11/11 00:41:11;;;;;;;3.55;3.03;;;;;;;;;;1040033;28;20037;-72
2023/11/11 00:41:42;;;;;;;4.63;3.08;;;;;;;;;;1040037;28;20023;-72
2023/11/11 00:42:14;;;;;;;3.03;1.83;;;;;;;;;;1040172;28;20032;-72
2023/11/11 00:42:44;;;;;;;5.03;2.88;;;;;;;;;;1039171;28;20059;-72
2023/11/11 00:43:15;;;;;;;3.75;2.05;;;;;;;;;;1039604;28;20029;-72
2023/11/11 00:43:45;;;;;;;1.70;1.60;;;;;;;;;;1039886;28;20485;-72
2023/11/11 00:44:18;;;;;;;3.30;2.45;;;;;;;;;;1040016;28;20017;-72
2023/11/11 00:44:48;;;;;;;2.72;2.45;;;;;;;;;;1039600;28;20032;-72
2023/11/11 00:45:19;;;;;;;2.55;2.38;;;;;;;;;;1039450;28;20111;-72
2023/11/11 00:45:53;;;;;;;5.25;2.15;;;;;;;;;;1039481;28;20079;-72
2023/11/11 00:46:23;;;;;;;1.60;1.50;;;;;;;;;;1039620;28;20448;-72
2023/11/11 00:46:54;;;;;;;15.07;4.72;;;;;;;;;;1039528;28;20052;-72
2023/11/11 00:47:24;;;;;;;2.00;1.85;;;;;;;;;;1039849;28;20370;-72
2023/11/11 00:47:55;;;;;;;1.80;1.67;;;;;;;;;;1040109;28;20031;-72
2023/11/11 00:48:25;;;;;;;3.30;2.83;;;;;;;;;;1039894;28;20036;-72
2023/11/11 00:48:56;;;;;;;0.57;0.57;;;;;;;;;;1040010;28;20040;-72
2023/11/11 00:49:27;;;;;;;2.25;2.00;;;;;;;;;;1039798;28;20037;-72
2023/11/11 00:49:57;;;;;;;7.20;2.42;;;;;;;;;;1039492;28;20096;-72
2023/11/11 00:50:28;;;;;;;4.28;3.03;;;;;;;;;;1039422;28;20552;-72
2023/11/11 00:50:59;;;;;;;5.80;2.65;;;;;;;;;;1039698;28;20033;-72
2023/11/11 00:51:29;;;;;;;14.18;4.03;;;;;;;;;;1036772;28;20026;-72
2023/11/11 00:52:00;;;;;;;9.00;5.75;;;;;;;;;;1038576;28;20017;-72
2023/11/11 00:52:31;;;;;;;31.48;9.73;;;;;;;;;;1039149;28;20032;-72
2023/11/11 00:53:02;;;;;;;57.35;18.73;;;;;;;;;;1039483;28;20033;-72
2023/11/11 00:53:32;;;;;;;58.08;19.30;;;;;;;;;;1039858;28;20385;-72
2023/11/11 00:54:03;;;;;;;49.33;19.23;;;;;;;;;;1039964;28;20014;-72
2023/11/11 00:54:33;;;;;;;21.30;8.77;;;;;;;;;;1038704;28;20029;-72
2023/11/11 00:55:07;;;;;;;57.80;14.00;;;;;;;;;;1039351;28;20105;-72
2023/11/11 00:55:37;;;;;;;40.85;9.25;;;;;;;;;;1036381;28;20030;-72
2023/11/11 00:56:08;;;;;;;17.58;5.80;;;;;;;;;;1037701;28;20025;-72
2023/11/11 00:56:39;;;;;;;14.48;9.75;;;;;;;;;;1038838;28;20120;-72
2023/11/11 00:57:09;;;;;;;14.50;7.82;;;;;;;;;;1039711;28;20030;-72
2023/11/11 00:57:43;;;;;;;32.92;8.45;;;;;;;;;;1039558;28;20021;-72
2023/11/11 00:58:13;;;;;;;5.00;4.55;;;;;;;;;;1039487;28;20032;-72
2023/11/11 00:58:43;;;;;;;23.10;4.22;;;;;;;;;;1039397;28;20119;-72
2023/11/11 00:59:14;;;;;;;8.82;4.55;;;;;;;;;;1039920;28;20032;-72
2023/11/11 00:59:44;;;;;;;11.00;4.22;;;;;;;;;;1039628;28;20021;-72
2023/11/11 01:00:19;;;;;;;10.35;3.80;;;;;;;;;;1039606;28;20060;-72
2023/11/11 01:00:50;;;;;;;6.85;3.33;;;;;;;;;;1039135;28;20523;-72
2023/11/11 01:01:20;;;;;;;11.63;5.93;;;;;;;;;;1039675;28;20040;-73
2023/11/11 01:01:50;;;;;;;14.60;6.22;;;;;;;;;;1039798;28;20028;-73
2023/11/11 01:02:21;;;;;;;9.18;4.80;;;;;;;;;;1040569;28;20620;-73
2023/11/11 01:02:52;;;;;;;21.92;6.72;;;;;;;;;;1038566;28;20483;-73
2023/11/11 01:03:22;;;;;;;17.85;6.72;;;;;;;;;;1039741;28;20021;-73
2023/11/11 01:03:53;;;;;;;13.13;6.20;;;;;;;;;;1039843;28;20028;-73
2023/11/11 01:04:23;;;;;;;23.85;6.20;;;;;;;;;;1039749;28;20140;-73
2023/11/11 01:04:54;;;;;;;20.27;9.05;;;;;;;;;;1039546;28;20026;-73
2023/11/11 01:05:25;;;;;;;14.02;6.18;;;;;;;;;;1039445;28;20100;-73
2023/11/11 01:05:56;;;;;;;22.45;6.63;;;;;;;;;;1039881;28;20032;-73
2023/11/11 01:06:26;;;;;;;6.72;4.45;;;;;;;;;;1039568;28;20140;-73
2023/11/11 01:06:57;;;;;;;5.95;4.47;;;;;;;;;;1039871;28;20029;-73
2023/11/11 01:07:27;;;;;;;7.95;2.75;;;;;;;;;;1039010;28;20052;-73
2023/11/11 01:07:58;;;;;;;16.83;5.55;;;;;;;;;;1039806;28;20534;-72
2023/11/11 01:08:30;;;;;;;12.60;5.28;;;;;;;;;;1038601;28;20028;-73
2023/11/11 01:09:03;;;;;;;12.60;6.18;;;;;;;;;;1039426;28;20049;-73
2023/11/11 01:09:33;;;;;;;12.00;4.43;;;;;;;;;;1039911;28;20021;-73
2023/11/11 01:10:04;;;;;;;17.30;5.50;;;;;;;;;;1039044;28;20022;-73
2023/11/11 01:10:37;;;;;;;29.63;8.80;;;;;;;;;;1039272;28;20033;-73
2023/11/11 01:11:08;;;;;;;16.10;4.85;;;;;;;;;;1038010;28;20116;-73
2023/11/11 01:11:41;;;;;;;6.60;4.32;;;;;;;;;;1039588;28;20079;-73
2023/11/11 01:12:12;;;;;;;10.40;4.57;;;;;;;;;;1039743;28;20489;-73
2023/11/11 01:12:43;;;;;;;3.38;2.72;;;;;;;;;;1039234;28;20028;-73
2023/11/11 01:13:13;;;;;;;17.95;4.90;;;;;;;;;;1039592;28;20030;-73
2023/11/11 01:13:44;;;;;;;11.80;5.55;;;;;;;;;;1039027;28;20018;-73
2023/11/11 01:14:14;;;;;;;6.75;2.92;;;;;;;;;;1039291;28;20030;-73
2023/11/11 01:14:45;;;;;;;4.85;1.95;;;;;;;;;;1038483;28;20059;-73
2023/11/11 01:15:16;;;;;;;3.88;1.95;;;;;;;;;;1037120;28;20560;-73
2023/11/11 01:15:47;;;;;;;5.18;3.00;;;;;;;;;;1037526;28;20032;-73
2023/11/11 01:16:18;;;;;;;4.47;1.48;;;;;;;;;;1038663;28;20112;-73
2023/11/11 01:16:48;;;;;;;11.43;3.92;;;;;;;;;;1035545;28;20514;-73
2023/11/11 01:17:19;;;;;;;7.38;3.03;;;;;;;;;;1036505;28;20071;-73
2023/11/11 01:17:49;;;;;;;6.93;3.42;;;;;;;;;;1035231;28;20036;-73
2023/11/11 01:18:20;;;;;;;11.95;4.03;;;;;;;;;;1036103;28;20025;-73
2023/11/11 01:18:51;;;;;;;10.52;3.40;;;;;;;;;;1034841;28;20040;-73
2023/11/11 01:19:21;;;;;;;7.65;3.38;;;;;;;;;;1035170;28;20021;-72
2023/11/11 01:19:52;;;;;;;17.02;6.70;;;;;;;;;;1039177;28;20417;-72
2023/11/11 01:20:22;;;;;;;7.68;4.50;;;;;;;;;;1038671;28;20068;-72
2023/11/11 01:20:53;;;;;;;3.28;2.22;;;;;;;;;;1039274;28;20409;-74
2023/11/11 01:21:23;;;;;;;9.95;3.45;;;;;;;;;;1039664;28;20022;-72
2023/11/11 01:21:54;;;;;;;7.20;4.28;;;;;;;;;;1039777;28;20448;-72
2023/11/11 01:22:24;;;;;;;6.07;2.72;;;;;;;;;;1038795;28;20050;-72
2023/11/11 01:22:56;;;;;;;18.17;3.03;;;;;;;;;;1039358;28;20032;-73
2023/11/11 01:23:26;;;;;;;10.38;2.80;;;;;;;;;;1039688;28;20029;-73
2023/11/11 01:23:57;;;;;;;32.92;4.47;;;;;;;;;;1039570;28;20017;-72
2023/11/11 01:24:28;;;;;;;4.78;4.35;;;;;;;;;;1039050;28;20029;-72
2023/11/11 01:24:58;;;;;;;10.57;3.95;;;;;;;;;;1039108;28;20026;-72
2023/11/11 01:25:29;;;;;;;8.32;3.58;;;;;;;;;;1036513;28;20103;-72
2023/11/11 01:26:01;;;;;;;7.95;5.22;;;;;;;;;;1038704;28;20076;-72
2023/11/11 01:26:32;;;;;;;4.25;3.85;;;;;;;;;;1038757;28;20029;-72
2023/11/11 01:27:03;;;;;;;4.72;2.63;;;;;;;;;;1039714;28;20488;-72
2023/11/11 01:27:35;;;;;;;8.48;4.68;;;;;;;;;;1036936;28;20299;-72
2023/11/11 01:28:06;;;;;;;3.20;1.90;;;;;;;;;;1038842;28;20052;-73
2023/11/11 01:28:36;;;;;;;4.65;2.85;;;;;;;;;;1038826;28;20060;-72
2023/11/11 01:29:07;;;;;;;13.10;4.38;;;;;;;;;;1038635;28;20044;-73
2023/11/11 01:29:38;;;;;;;5.35;3.97;;;;;;;;;;1038925;28;20454;-73
2023/11/11 01:30:09;;;;;;;6.38;2.42;;;;;;;;;;1039235;28;20087;-73
2023/11/11 01:30:39;;;;;;;6.72;2.58;;;;;;;;;;1038838;28;20033;-73
2023/11/11 01:31:10;;;;;;;5.68;2.95;;;;;;;;;;1039027;28;20021;-73
2023/11/11 01:31:40;;;;;;;4.45;2.30;;;;;;;;;;1038604;28;20052;-73
2023/11/11 01:32:11;;;;;;;2.78;2.50;;;;;;;;;;1039325;28;20029;-73
2023/11/11 01:32:41;;;;;;;4.45;2.63;;;;;;;;;;1038897;28;20086;-73
2023/11/11 01:33:12;;;;;;;5.38;2.67;;;;;;;;;;1039316;28;20032;-73
2023/11/11 01:33:42;;;;;;;3.47;2.03;;;;;;;;;;1038949;28;20047;-72
2023/11/11 01:34:13;;;;;;;3.83;2.38;;;;;;;;;;1039200;28;20025;-72
2023/11/11 01:34:43;;;;;;;21.27;4.97;;;;;;;;;;1038600;28;20024;-72
2023/11/11 01:35:14;;;;;;;3.85;2.70;;;;;;;;;;1042572;28;20079;-72
2023/11/11 01:35:45;;;;;;;5.95;3.45;;;;;;;;;;1042837;28;20067;-72
2023/11/11 01:36:15;;;;;;;2.53;1.63;;;;;;;;;;1042152;28;20025;-72
2023/11/11 01:36:46;;;;;;;5.70;1.80;;;;;;;;;;1040366;28;20021;-72
2023/11/11 01:37:17;;;;;;;12.80;3.28;;;;;;;;;;1038268;28;20017;-73
2023/11/11 01:37:47;;;;;;;4.28;2.53;;;;;;;;;;1038327;28;20052;-73
2023/11/11 01:38:18;;;;;;;1.70;1.60;;;;;;;;;;1036340;28;20128;-73
2023/11/11 01:38:48;;;;;;;10.35;2.53;;;;;;;;;;1036095;28;20041;-73
2023/11/11 01:39:19;;;;;;;2.42;2.25;;;;;;;;;;1035890;28;20030;-73
2023/11/11 01:39:50;;;;;;;2.35;2.17;;;;;;;;;;1037609;28;20024;-73
2023/11/11 01:40:20;;;;;;;2.95;2.05;;;;;;;;;;1038440;28;20501;-73
2023/11/11 01:40:52;;;;;;;5.75;3.40;;;;;;;;;;1038714;28;20026;-73
2023/11/11 01:41:23;;;;;;;1.90;1.63;;;;;;;;;;1038795;28;20036;-72
2023/11/11 01:41:53;;;;;;;4.43;2.22;;;;;;;;;;1038689;28;20026;-73
2023/11/11 01:42:23;;;;;;;2.45;2.25;;;;;;;;;;1035626;28;20037;-73
2023/11/11 01:42:54;;;;;;;3.08;2.20;;;;;;;;;;1035485;28;20025;-73
2023/11/11 01:43:25;;;;;;;4.72;2.28;;;;;;;;;;1036117;28;20334;-73
2023/11/11 01:43:56;;;;;;;0.88;0.88;;;;;;;;;;1038816;28;20535;-73
2023/11/11 01:44:26;;;;;;;10.15;4.18;;;;;;;;;;1038107;28;20044;-73
2023/11/11 01:44:57;;;;;;;2.00;1.67;;;;;;;;;;1037085;28;20037;-73
2023/11/11 01:45:27;;;;;;;0.77;0.77;;;;;;;;;;1037746;28;20030;-73
2023/11/11 01:46:01;;;;;;;4.78;2.25;;;;;;;;;;1036833;28;20026;-73
2023/11/11 01:46:32;;;;;;;1.42;1.13;;;;;;;;;;1037348;28;20030;-73
2023/11/11 01:47:06;;;;;;;0.98;0.98;;;;;;;;;;1036859;28;20037;-73
2023/11/11 01:47:37;;;;;;;0.52;0.52;;;;;;;;;;1037215;28;20509;-73
2023/11/11 01:48:07;;;;;;;5.30;1.75;;;;;;;;;;1038452;28;20440;-73
2023/11/11 01:48:40;;;;;;;5.82;3.78;;;;;;;;;;1037786;28;20029;-73
2023/11/11 01:49:11;;;;;;;15.95;1.45;;;;;;;;;;1037783;28;20040;-73
2023/11/11 01:49:42;;;;;;;5.63;1.90;;;;;;;;;;1037654;28;20032;-73
2023/11/11 01:50:13;;;;;;;1.17;1.17;;;;;;;;;;1039155;28;20078;-73
2023/11/11 01:50:44;;;;;;;2.22;2.08;;;;;;;;;;1038032;28;20051;-73
2023/11/11 01:51:15;;;;;;;3.38;2.47;;;;;;;;;;1038193;28;20036;-72
2023/11/11 01:51:46;;;;;;;12.93;2.00;;;;;;;;;;1036229;28;20022;-73
2023/11/11 01:52:17;;;;;;;6.15;1.95;;;;;;;;;;1034459;28;20508;-73
2023/11/11 01:52:53;;;;;;;7.20;3.63;;;;;;;;;;1037799;28;20521;-73
2023/11/11 01:53:27;;;;;;;0.85;0.80;;;;;;;;;;1036669;28;20029;-73
2023/11/11 01:53:58;;;;;;;3.38;2.97;;;;;;;;;;1037008;28;20025;-73
2023/11/11 01:54:29;;;;;;;1.33;1.23;;;;;;;;;;1038456;28;20017;-73
2023/11/11 01:55:01;;;;;;;0.85;0.75;;;;;;;;;;1039756;28;20049;-73
2023/11/11 01:55:35;;;;;;;1.65;1.30;;;;;;;;;;1038140;28;20452;-72
2023/11/11 01:56:08;;;;;;;7.30;1.00;;;;;;;;;;1039052;28;20021;-72
2023/11/11 01:56:39;;;;;;;0.63;0.63;;;;;;;;;;1037711;28;20021;-72
2023/11/11 01:57:09;;;;;;;2.60;2.25;;;;;;;;;;1038139;28;20547;-72
2023/11/11 01:57:40;;;;;;;0.88;0.88;;;;;;;;;;1038545;28;20460;-72
2023/11/11 01:58:10;;;;;;;1.13;1.05;;;;;;;;;;1038789;28;20022;-72
2023/11/11 01:58:41;;;;;;;4.47;4.15;;;;;;;;;;1038083;28;20401;-72
2023/11/11 01:59:12;;;;;;;5.05;1.65;;;;;;;;;;1038632;28;20127;-72
2023/11/11 01:59:44;;;;;;;1.35;1.00;;;;;;;;;;1034388;28;20033;-73
2023/11/11 02:00:16;;;;;;;1.00;1.00;;;;;;;;;;1034523;28;20026;-73
2023/11/11 02:00:47;;;;;;;1.88;1.77;;;;;;;;;;1038011;28;20130;-73
2023/11/11 02:01:17;;;;;;;2.80;2.58;;;;;;;;;;1034257;28;20655;-72
2023/11/11 02:01:49;;;;;;;3.15;2.65;;;;;;;;;;1038076;28;20017;-72
2023/11/11 02:02:19;;;;;;;2.70;2.47;;;;;;;;;;1037964;28;20048;-72
2023/11/11 02:02:50;;;;;;;9.63;3.35;;;;;;;;;;1035430;28;20409;-72
2023/11/11 02:03:21;;;;;;;0.65;0.65;;;;;;;;;;1037797;28;20025;-72
2023/11/11 02:03:52;;;;;;;2.40;2.20;;;;;;;;;;1038015;28;20481;-71
2023/11/11 02:04:24;;;;;;;3.85;2.05;;;;;;;;;;1037376;28;20124;-71
2023/11/11 02:04:54;;;;;;;2.10;1.90;;;;;;;;;;1037640;28;20030;-72
2023/11/11 02:05:25;;;;;;;4.72;1.67;;;;;;;;;;1036469;28;20040;-72
2023/11/11 02:05:56;;;;;;;2.35;1.50;;;;;;;;;;1038670;28;20029;-72
2023/11/11 02:06:27;;;;;;;8.98;4.95;;;;;;;;;;1038436;28;20033;-72
2023/11/11 02:06:58;;;;;;;5.05;3.15;;;;;;;;;;1037595;28;20437;-72
2023/11/11 02:07:28;;;;;;;11.55;4.97;;;;;;;;;;1036635;28;20465;-72
2023/11/11 02:08:00;;;;;;;8.07;3.58;;;;;;;;;;1037794;28;20599;-72
2023/11/11 02:08:32;;;;;;;5.75;3.35;;;;;;;;;;1033809;28;20168;-72
2023/11/11 02:09:03;;;;;;;8.50;3.03;;;;;;;;;;1034344;28;20100;-72
2023/11/11 02:09:34;;;;;;;2.13;1.98;;;;;;;;;;1033579;28;20026;-72
2023/11/11 02:10:05;;;;;;;2.95;2.50;;;;;;;;;;1034996;28;20033;-72
2023/11/11 02:10:36;;;;;;;6.32;3.67;;;;;;;;;;1038073;28;20032;-72
2023/11/11 02:11:08;;;;;;;11.82;2.97;;;;;;;;;;1036152;28;20041;-73
2023/11/11 02:11:41;;;;;;;3.63;3.33;;;;;;;;;;1036416;28;20060;-72
2023/11/11 02:12:11;;;;;;;3.10;2.83;;;;;;;;;;1036536;28;20052;-72
2023/11/11 02:12:42;;;;;;;3.47;2.13;;;;;;;;;;1037054;28;20546;-72
2023/11/11 02:13:13;;;;;;;1.75;1.60;;;;;;;;;;1038375;28;20040;-72
2023/11/11 02:13:44;;;;;;;5.57;3.60;;;;;;;;;;1037695;28;20036;-72
2023/11/11 02:14:15;;;;;;;3.22;2.95;;;;;;;;;;1038616;28;20635;-72
2023/11/11 02:14:46;;;;;;;4.43;4.00;;;;;;;;;;1037637;28;20076;-72
2023/11/11 02:15:17;;;;;;;7.60;3.50;;;;;;;;;;1037119;28;20132;-72
2023/11/11 02:15:48;;;;;;;10.77;3.05;;;;;;;;;;1037360;28;20072;-72
2023/11/11 02:16:19;;;;;;;4.35;3.10;;;;;;;;;;1038469;28;20915;-72
2023/11/11 02:16:50;;;;;;;3.90;2.20;;;;;;;;;;1036532;28;20064;-73
2023/11/11 02:17:20;;;;;;;6.35;4.03;;;;;;;;;;1036639;28;20076;-72
2023/11/11 02:17:55;;;;;;;18.25;3.78;;;;;;;;;;1037899;28;20025;-72
2023/11/11 02:18:27;;;;;;;3.13;2.58;;;;;;;;;;1038198;28;20021;-72
2023/11/11 02:18:57;;;;;;;2.13;1.95;;;;;;;;;;1034866;28;20028;-72
2023/11/11 02:19:28;;;;;;;4.97;3.22;;;;;;;;;;1038054;28;20033;-72
2023/11/11 02:20:00;;;;;;;5.55;5.07;;;;;;;;;;1037370;28;20080;-72
2023/11/11 02:20:33;;;;;;;4.88;3.45;;;;;;;;;;1037264;28;20427;-72
2023/11/11 02:21:03;;;;;;;2.20;1.90;;;;;;;;;;1038079;28;20071;-73
2023/11/11 02:21:34;;;;;;;1.73;1.63;;;;;;;;;;1038702;28;20025;-72
2023/11/11 02:22:04;;;;;;;8.43;3.95;;;;;;;;;;1039125;28;20576;-72
2023/11/11 02:22:35;;;;;;;2.00;1.63;;;;;;;;;;1037947;28;20048;-73
2023/11/11 02:23:05;;;;;;;2.22;2.03;;;;;;;;;;1039226;28;20025;-72
2023/11/11 02:23:37;;;;;;;3.22;2.92;;;;;;;;;;1036289;28;20518;-72
2023/11/11 02:24:07;;;;;;;14.77;4.30;;;;;;;;;;1037366;28;20028;-71
2023/11/11 02:24:39;;;;;;;1.23;1.10;;;;;;;;;;1037881;28;20564;-71
2023/11/11 02:25:09;;;;;;;2.92;2.65;;;;;;;;;;1038706;28;20136;-71
2023/11/11 02:25:40;;;;;;;8.13;3.30;;;;;;;;;;1037782;28;20017;-72
2023/11/11 02:26:11;;;;;;;3.60;1.35;;;;;;;;;;1038637;28;20032;-71
2023/11/11 02:26:43;;;;;;;14.63;4.18;;;;;;;;;;1037728;28;20029;-72
2023/11/11 02:27:14;;;;;;;5.85;3.83;;;;;;;;;;1037776;28;20036;-71
2023/11/11 02:27:46;;;;;;;6.15;2.97;;;;;;;;;;1038982;28;20025;-71
2023/11/11 02:28:17;;;;;;;3.28;2.97;;;;;;;;;;1038150;28;20600;-72
2023/11/11 02:28:47;;;;;;;11.15;4.38;;;;;;;;;;1037758;28;20112;-72
2023/11/11 02:29:18;;;;;;;2.75;2.53;;;;;;;;;;1037254;28;20131;-72
2023/11/11 02:29:49;;;;;;;14.93;6.40;;;;;;;;;;1033503;28;20025;-72
2023/11/11 02:30:20;;;;;;;13.20;4.93;;;;;;;;;;1033612;28;20022;-72
2023/11/11 02:30:51;;;;;;;4.72;3.28;;;;;;;;;;1030698;28;20018;-72
2023/11/11 02:31:24;;;;;;;9.63;3.38;;;;;;;;;;1033425;28;20026;-72
2023/11/11 02:31:55;;;;;;;9.25;6.10;;;;;;;;;;1039179;28;20073;-72
2023/11/11 02:32:25;;;;;;;1.90;1.13;;;;;;;;;;1038344;28;20044;-73
2023/11/11 02:32:56;;;;;;;2.00;1.85;;;;;;;;;;1038013;28;20029;-72
2023/11/11 02:33:27;;;;;;;11.70;4.40;;;;;;;;;;1037709;28;20032;-72
2023/11/11 02:33:57;;;;;;;17.73;6.85;;;;;;;;;;1038297;28;20505;-72
2023/11/11 02:34:28;;;;;;;9.77;4.20;;;;;;;;;;1037922;28;20025;-72
2023/11/11 02:34:58;;;;;;;8.25;5.28;;;;;;;;;;1037558;28;20021;-72
2023/11/11 02:35:29;;;;;;;10.77;3.85;;;;;;;;;;1036977;28;20469;-72
2023/11/11 02:36:00;;;;;;;2.45;2.25;;;;;;;;;;1036329;28;20033;-72
2023/11/11 02:36:30;;;;;;;5.88;2.75;;;;;;;;;;1034759;28;20503;-72
2023/11/11 02:37:01;;;;;;;3.85;3.10;;;;;;;;;;1036178;28;20380;-72
2023/11/11 02:37:31;;;;;;;8.18;3.45;;;;;;;;;;1036628;28;20388;-72
2023/11/11 02:38:02;;;;;;;2.78;2.45;;;;;;;;;;1035432;28;20025;-72
2023/11/11 02:38:32;;;;;;;11.35;3.13;;;;;;;;;;1037986;28;20017;-73
2023/11/11 02:39:04;;;;;;;7.90;4.53;;;;;;;;;;1037948;28;20029;-72
2023/11/11 02:39:35;;;;;;;8.18;5.88;;;;;;;;;;1036882;28;20455;-72
2023/11/11 02:40:08;;;;;;;6.15;3.55;;;;;;;;;;1032639;28;20092;-72
2023/11/11 02:40:39;;;;;;;7.97;4.25;;;;;;;;;;1031750;28;20030;-72
2023/11/11 02:41:10;;;;;;;6.28;4.53;;;;;;;;;;1033652;28;20019;-72
2023/11/11 02:41:41;;;;;;;9.10;6.43;;;;;;;;;;1033575;28;20053;-73
2023/11/11 02:42:15;;;;;;;4.93;3.15;;;;;;;;;;1038228;28;20192;-73
2023/11/11 02:42:45;;;;;;;6.25;3.20;;;;;;;;;;1037401;28;20022;-73
2023/11/11 02:43:16;;;;;;;11.85;5.28;;;;;;;;;;1037619;28;20026;-73
2023/11/11 02:43:46;;;;;;;6.03;4.00;;;;;;;;;;1037435;28;20090;-73
2023/11/11 02:44:17;;;;;;;13.93;4.70;;;;;;;;;;1037499;28;20069;-73
2023/11/11 02:44:47;;;;;;;10.68;3.50;;;;;;;;;;1036324;28;20026;-73
2023/11/11 02:45:18;;;;;;;4.82;2.30;;;;;;;;;;1037236;28;20354;-73
2023/11/11 02:45:48;;;;;;;3.05;1.65;;;;;;;;;;1037760;28;20052;-73
2023/11/11 02:46:22;;;;;;;4.22;1.85;;;;;;;;;;1036885;28;20021;-72
2023/11/11 02:46:52;;;;;;;2.50;2.10;;;;;;;;;;1036605;28;20071;-72
2023/11/11 02:47:23;;;;;;;1.98;1.75;;;;;;;;;;1033167;28;20432;-72
2023/11/11 02:47:53;;;;;;;14.68;2.20;;;;;;;;;;1033182;28;20771;-72
2023/11/11 02:48:24;;;;;;;3.97;2.50;;;;;;;;;;1037413;28;20033;-72
2023/11/11 02:48:54;;;;;;;6.22;1.95;;;;;;;;;;1036619;28;21422;-72
2023/11/11 02:49:25;;;;;;;12.75;3.60;;;;;;;;;;1036698;28;20048;-72
2023/11/11 02:49:56;;;;;;;7.28;3.03;;;;;;;;;;1037352;28;20513;-72
2023/11/11 02:50:27;;;;;;;1.90;1.75;;;;;;;;;;1036621;28;20021;-73
2023/11/11 02:50:58;;;;;;;3.50;2.65;;;;;;;;;;1031286;28;20025;-72
2023/11/11 02:51:29;;;;;;;1.83;1.65;;;;;;;;;;1030665;28;20421;-72
2023/11/11 02:52:00;;;;;;;7.55;3.78;;;;;;;;;;1026100;28;20593;-72
2023/11/11 02:52:31;;;;;;;0.77;0.73;;;;;;;;;;1025678;28;20538;-71
2023/11/11 02:53:02;;;;;;;2.28;1.48;;;;;;;;;;1025136;28;20034;-72
2023/11/11 02:53:32;;;;;;;6.43;0.75;;;;;;;;;;1028420;28;20475;-72
2023/11/11 02:54:03;;;;;;;1.92;1.15;;;;;;;;;;1032700;28;20026;-71
2023/11/11 02:54:33;;;;;;;2.63;2.42;;;;;;;;;;1036757;28;20030;-71
2023/11/11 02:55:05;;;;;;;0.77;0.77;;;;;;;;;;1037409;28;20083;-72
2023/11/11 02:55:35;;;;;;;2.20;2.05;;;;;;;;;;1037983;28;20112;-72
2023/11/11 02:56:06;;;;;;;1.05;1.02;;;;;;;;;;1037891;28;20025;-71
2023/11/11 02:56:37;;;;;;;7.03;3.03;;;;;;;;;;1038107;28;20333;-71
2023/11/11 02:57:07;;;;;;;13.98;2.13;;;;;;;;;;1038820;28;20064;-71
2023/11/11 02:57:38;;;;;;;6.10;3.00;;;;;;;;;;1037298;28;20144;-72
2023/11/11 02:58:09;;;;;;;15.10;3.92;;;;;;;;;;1038454;28;20025;-71
2023/11/11 02:58:39;;;;;;;10.52;2.38;;;;;;;;;;1037537;28;20824;-71
2023/11/11 02:59:10;;;;;;;1.67;1.58;;;;;;;;;;1037260;28;20030;-71
2023/11/11 02:59:41;;;;;;;0.85;0.77;;;;;;;;;;1038491;28;20048;-71
2023/11/11 03:00:12;;;;;;;10.52;2.35;;;;;;;;;;1037740;28;20088;-71
2023/11/11 03:00:43;;;;;;;4.45;2.45;;;;;;;;;;1037843;28;20485;-71
2023/11/11 03:01:14;;;;;;;6.95;2.15;;;;;;;;;;1038432;28;20071;-72
2023/11/11 03:01:45;;;;;;;1.08;1.02;;;;;;;;;;1035020;28;20017;-71
2023/11/11 03:02:15;;;;;;;2.17;1.80;;;;;;;;;;1038677;28;20116;-72
2023/11/11 03:02:46;;;;;;;3.50;3.17;;;;;;;;;;1033591;28;20508;-72
2023/11/11 03:03:16;;;;;;;2.85;2.25;;;;;;;;;;1034231;28;20033;-73
2023/11/11 03:03:49;;;;;;;2.63;1.92;;;;;;;;;;1035093;28;20100;-74
2023/11/11 03:04:21;;;;;;;0.85;0.85;;;;;;;;;;1033068;28;20473;-72
2023/11/11 03:04:53;;;;;;;2.33;1.80;;;;;;;;;;1036157;28;20499;-73
2023/11/11 03:05:24;;;;;;;11.18;2.40;;;;;;;;;;1035855;28;20418;-72